Time;durP1;ratioP1;P1;durP2;ratioP2;P2;SDS_P1;SDS_P2;PMS_P1;PMS_P2;Temp;Humidity;BMP_temperature;BMP_pressure;BME280_temperature;BME280_humidity;BME280_pressure;Samples;Min_cycle;Max_cycle;Signal;HPM_P1;HPM_P2
2021/10/21 00:00:37;;;;;;;23.70;16.10;;;;;;;10.02;77.42;100941.46;1769044;81;21362;-61
2021/10/21 00:03:43;;;;;;;22.00;15.45;;;;;;;9.99;77.60;100936.31;1800652;79;21336;-61
2021/10/21 00:06:49;;;;;;;28.38;16.42;;;;;;;9.98;77.86;100935.97;1769637;81;21205;-62
2021/10/21 00:09:53;;;;;;;25.57;16.75;;;;;;;9.95;78.08;100932.19;1803092;79;21352;-60
2021/10/21 00:12:58;;;;;;;26.85;16.60;;;;;;;9.93;78.30;100921.91;1831605;78;21248;-61
2021/10/21 00:16:04;;;;;;;27.35;17.73;;;;;;;9.93;78.56;100911.47;1843173;78;21189;-62
2021/10/21 00:19:13;;;;;;;28.83;16.97;;;;;;;9.91;78.78;100914.36;1843272;78;21308;-60
2021/10/21 00:22:19;;;;;;;24.70;16.02;;;;;;;9.89;78.98;100917.79;1843193;78;21322;-61
2021/10/21 00:25:27;;;;;;;24.52;16.57;;;;;;;9.88;79.25;100916.05;1843158;78;21331;-61
2021/10/21 00:28:32;;;;;;;27.60;17.80;;;;;;;9.85;79.52;100915.00;1843170;78;21161;-61
2021/10/21 00:31:37;;;;;;;27.35;17.00;;;;;;;9.84;79.75;100912.43;1843515;78;21398;-60
2021/10/21 00:34:43;;;;;;;24.75;17.12;;;;;;;9.83;79.90;100914.83;1771576;81;21915;-61
2021/10/21 00:37:49;;;;;;;29.87;18.17;;;;;;;9.80;80.12;100914.61;1803206;79;21371;-61
2021/10/21 00:40:56;;;;;;;23.55;17.20;;;;;;;9.80;80.35;100907.78;1771387;81;21236;-62
2021/10/21 00:44:12;;;;;;;26.50;16.93;;;;;;;9.76;80.46;100898.19;1803089;79;21173;-60
2021/10/21 00:47:19;;;;;;;29.72;18.27;;;;;;;9.74;80.66;100897.48;1771511;81;21371;-60
2021/10/21 00:50:26;;;;;;;30.85;18.35;;;;;;;9.70;80.88;100897.47;1803207;79;21378;-63
2021/10/21 00:53:31;;;;;;;28.55;18.48;;;;;;;9.68;81.17;100891.28;1771382;81;21316;-61
2021/10/21 00:56:39;;;;;;;26.42;18.55;;;;;;;9.67;81.46;100889.55;1803068;79;21345;-60
2021/10/21 00:59:46;;;;;;;29.95;19.12;;;;;;;9.64;81.73;100884.40;1735981;81;21169;-61
2021/10/21 01:02:51;;;;;;;31.05;19.73;;;;;;;9.62;81.94;100882.36;1804943;79;21334;-59
2021/10/21 01:05:59;;;;;;;34.35;19.45;;;;;;;9.59;82.18;100882.67;1804662;79;21826;-59
2021/10/21 01:09:04;;;;;;;31.23;20.52;;;;;;;9.58;82.51;100886.41;1804645;79;21212;-61
2021/10/21 01:12:11;;;;;;;30.08;20.00;;;;;;;9.55;82.71;100886.72;1804732;79;21300;-60
2021/10/21 01:15:27;;;;;;;32.28;21.60;;;;;;;9.53;82.90;100886.54;1804789;79;21208;-61
2021/10/21 01:18:33;;;;;;;33.38;20.85;;;;;;;9.50;83.17;100891.80;1804330;79;21354;-61
2021/10/21 01:21:38;;;;;;;34.70;22.70;;;;;;;9.48;83.52;100892.45;1804599;79;21209;-61
2021/10/21 01:24:44;;;;;;;35.80;25.55;;;;;;;9.46;83.73;100888.17;1804697;79;21347;-61
2021/10/21 01:27:50;;;;;;;34.80;25.88;;;;;;;9.43;83.95;100891.22;1804785;79;21327;-60
2021/10/21 01:30:56;;;;;;;36.48;26.35;;;;;;;9.40;84.18;100886.06;1804248;79;21200;-60
2021/10/21 01:34:02;;;;;;;40.75;27.07;;;;;;;9.36;84.47;100890.98;1804652;79;21378;-60
2021/10/21 01:37:08;;;;;;;38.02;27.82;;;;;;;9.34;84.73;100882.06;1804387;79;21315;-60
2021/10/21 01:40:16;;;;;;;38.63;28.73;;;;;;;9.31;84.93;100890.58;1804820;79;21186;-61
2021/10/21 01:43:22;;;;;;;45.50;29.15;;;;;;;9.28;85.13;100885.42;1804777;79;21169;-61
2021/10/21 01:46:27;;;;;;;37.10;26.17;;;;;;;9.26;85.36;100880.62;1803724;79;21331;-61
2021/10/21 01:49:33;;;;;;;33.23;22.93;;;;;;;9.24;85.57;100875.84;1805440;79;21319;-61
2021/10/21 01:52:40;;;;;;;31.37;22.62;;;;;;;9.24;85.91;100875.84;1804644;79;21332;-59
2021/10/21 01:55:46;;;;;;;33.65;21.48;;;;;;;9.23;86.14;100872.73;1804693;79;21327;-62
2021/10/21 01:58:52;;;;;;;34.23;22.52;;;;;;;9.25;86.40;100872.58;1805233;77;21193;-61
2021/10/21 02:01:58;;;;;;;37.20;24.23;;;;;;;9.25;86.61;100872.08;1821347;78;21177;-61
2021/10/21 02:05:05;;;;;;;32.13;22.32;;;;;;;9.27;86.84;100875.52;1821456;78;21335;-61
2021/10/21 02:08:10;;;;;;;32.98;22.87;;;;;;;9.30;87.02;100864.78;1821332;78;21178;-60
2021/10/21 02:11:15;;;;;;;36.30;23.80;;;;;;;9.32;87.19;100863.63;1824131;78;21180;-60
2021/10/21 02:14:21;;;;;;;32.93;22.52;;;;;;;9.34;87.39;100854.75;1821081;79;21284;-60
2021/10/21 02:17:29;;;;;;;32.63;23.00;;;;;;;9.37;87.59;100856.33;1821354;78;21415;-60
2021/10/21 02:20:35;;;;;;;35.17;22.02;;;;;;;9.41;87.66;100861.31;1821386;79;21201;-60
2021/10/21 02:23:40;;;;;;;33.88;22.20;;;;;;;9.45;87.69;100853.67;1821367;78;21315;-61
2021/10/21 02:26:47;;;;;;;34.85;22.90;;;;;;;9.49;87.75;100857.79;1821430;78;21340;-61
2021/10/21 02:29:53;;;;;;;33.08;22.73;;;;;;;9.53;87.77;100855.95;1740364;82;21217;-61
2021/10/21 02:33:00;;;;;;;32.95;22.67;;;;;;;9.56;87.82;100850.16;1824759;78;21228;-62
2021/10/21 02:36:05;;;;;;;36.10;22.85;;;;;;;9.57;87.83;100842.33;1823764;78;21193;-60
2021/10/21 02:39:12;;;;;;;30.65;22.17;;;;;;;9.60;87.88;100839.78;1824161;78;21236;-61
2021/10/21 02:42:17;;;;;;;33.83;22.70;;;;;;;9.62;87.94;100841.36;1739380;82;21344;-60
2021/10/21 02:45:22;;;;;;;30.95;22.70;;;;;;;9.66;88.03;100836.40;1754163;81;21209;-61
2021/10/21 02:48:28;;;;;;;33.45;22.95;;;;;;;9.69;88.08;100841.05;1821434;78;21181;-61
2021/10/21 02:51:33;;;;;;;31.65;21.85;;;;;;;9.71;88.13;100831.32;1821317;78;21213;-59
2021/10/21 02:54:43;;;;;;;32.28;21.75;;;;;;;9.76;88.19;100835.81;1739513;82;21820;-62
2021/10/21 02:57:48;;;;;;;32.53;22.05;;;;;;;9.79;88.22;100832.25;1769551;80;21213;-61
2021/10/21 03:00:53;;;;;;;33.42;21.95;;;;;;;9.82;88.20;100837.39;1830888;78;21299;-61
2021/10/21 03:03:58;;;;;;;33.08;22.77;;;;;;;9.85;88.22;100838.94;1843169;78;21315;-62
2021/10/21 03:07:06;;;;;;;30.97;20.65;;;;;;;9.88;88.28;100831.28;1843154;78;21153;-62
2021/10/21 03:10:15;;;;;;;36.33;22.17;;;;;;;9.88;88.32;100823.08;1843218;78;21358;-62
2021/10/21 03:13:21;;;;;;;36.28;22.42;;;;;;;9.88;88.37;100812.14;1843224;78;21304;-54
2021/10/21 03:16:30;;;;;;;33.20;22.82;;;;;;;9.88;88.45;100817.61;1842477;78;21184;-59
2021/10/21 03:19:35;;;;;;;36.40;22.52;;;;;;;9.85;88.52;100813.83;1770948;81;21343;-61
2021/10/21 03:22:40;;;;;;;39.80;22.45;;;;;;;9.79;88.57;100809.02;1843076;78;21498;-61
2021/10/21 03:25:46;;;;;;;31.62;22.82;;;;;;;9.70;88.62;100802.28;1842312;78;21176;-60
2021/10/21 03:28:51;;;;;;;30.88;22.37;;;;;;;9.63;88.75;100793.86;1842867;78;21322;-61
2021/10/21 03:31:58;;;;;;;29.20;20.80;;;;;;;9.57;88.95;100797.73;1842156;78;21319;-60
2021/10/21 03:35:04;;;;;;;33.73;22.67;;;;;;;9.50;89.24;100790.67;1842838;78;21370;-60
2021/10/21 03:38:10;;;;;;;35.98;22.58;;;;;;;9.45;89.47;100789.45;1842994;78;21624;-59
2021/10/21 03:41:16;;;;;;;33.18;22.77;;;;;;;9.40;89.71;100785.84;1842840;78;21177;-60
2021/10/21 03:44:21;;;;;;;31.68;23.20;;;;;;;9.37;89.98;100784.76;1842743;78;21224;-62
2021/10/21 03:47:26;;;;;;;34.10;22.22;;;;;;;9.33;90.17;100787.47;1841470;78;21303;-59
2021/10/21 03:50:32;;;;;;;30.77;22.30;;;;;;;9.30;90.44;100776.86;1842635;78;21804;-60
2021/10/21 03:53:38;;;;;;;32.35;22.42;;;;;;;9.28;90.71;100772.05;1841349;78;21330;-59
2021/10/21 03:56:44;;;;;;;32.38;22.77;;;;;;;9.27;90.96;100768.98;1842798;78;21330;-62
2021/10/21 03:59:50;;;;;;;35.43;23.02;;;;;;;9.25;91.21;100761.45;1843018;78;21331;-61
2021/10/21 04:02:59;;;;;;;32.80;22.48;;;;;;;9.24;91.45;100770.67;1731955;79;21411;-60
2021/10/21 04:06:06;;;;;;;36.95;23.90;;;;;;;9.22;91.65;100769.09;1743161;82;21390;-60
2021/10/21 04:09:12;;;;;;;31.93;22.75;;;;;;;9.19;91.84;100757.98;1803845;79;21343;-59
2021/10/21 04:12:18;;;;;;;38.10;23.55;;;;;;;9.18;92.08;100760.35;1803641;79;21177;-58
2021/10/21 04:15:25;;;;;;;34.33;23.07;;;;;;;9.18;92.36;100756.25;1803537;79;22172;-60
2021/10/21 04:18:31;;;;;;;31.85;22.13;;;;;;;9.17;92.58;100740.02;1803963;79;21169;-60
2021/10/21 04:21:36;;;;;;;38.95;22.35;;;;;;;9.16;92.81;100748.75;1804507;79;21339;-61
2021/10/21 04:24:43;;;;;;;31.80;21.62;;;;;;;9.17;93.07;100734.56;1804356;79;21796;-60
2021/10/21 04:27:50;;;;;;;34.53;22.85;;;;;;;9.16;93.31;100740.55;1804968;79;21798;-61
2021/10/21 04:30:55;;;;;;;34.85;23.00;;;;;;;9.16;93.61;100735.09;1804573;79;21346;-61
2021/10/21 04:34:01;;;;;;;44.18;21.95;;;;;;;9.17;93.98;100740.89;1804694;79;21228;-60
2021/10/21 04:37:08;;;;;;;37.40;24.32;;;;;;;9.19;94.26;100736.63;1804611;79;21217;-60
2021/10/21 04:40:15;;;;;;;36.17;21.97;;;;;;;9.21;94.56;100745.04;1804395;79;21228;-62
2021/10/21 04:43:21;;;;;;;38.88;21.87;;;;;;;9.23;94.87;100740.25;1799585;79;21679;-59
2021/10/21 04:46:26;;;;;;;31.65;21.45;;;;;;;9.26;95.04;100736.36;1794031;79;21330;-61
2021/10/21 04:49:32;;;;;;;52.58;34.40;;;;;;;9.30;95.35;100735.88;1772186;80;21267;-60
2021/10/21 04:52:38;;;;;;;42.55;32.20;;;;;;;9.34;95.57;100723.61;1772290;80;21844;-57
2021/10/21 04:55:44;;;;;;;39.95;25.23;;;;;;;9.40;95.76;100724.86;1763073;80;21221;-61
2021/10/21 04:58:49;;;;;;;36.17;23.42;;;;;;;9.44;95.98;100713.44;1793631;79;21216;-61
2021/10/21 05:01:56;;;;;;;31.42;21.52;;;;;;;9.50;96.13;100708.69;1802512;79;21878;-59
2021/10/21 05:05:02;;;;;;;32.93;20.45;;;;;;;9.57;96.28;100717.11;1808410;79;21303;-61
2021/10/21 05:08:11;;;;;;;31.30;21.52;;;;;;;9.64;96.39;100714.09;1808560;79;21312;-60
2021/10/21 05:11:17;;;;;;;31.07;20.70;;;;;;;9.69;96.39;100713.94;1809474;77;21201;-61
2021/10/21 05:14:24;;;;;;;30.50;19.98;;;;;;;9.76;96.36;100710.05;1809114;79;21413;-61
2021/10/21 05:17:32;;;;;;;33.33;19.52;;;;;;;9.84;96.44;100708.72;1809034;79;21200;-60
2021/10/21 05:20:41;;;;;;;30.27;20.12;;;;;;;9.91;96.47;100711.17;1821082;78;21343;-60
2021/10/21 05:23:47;;;;;;;28.05;20.27;;;;;;;9.98;96.45;100712.20;1810012;78;21351;-61
2021/10/21 05:26:52;;;;;;;29.57;20.65;;;;;;;10.03;96.38;100692.06;1811748;78;21809;-60
2021/10/21 05:29:57;;;;;;;27.80;19.77;;;;;;;10.09;96.22;100690.93;1816746;78;21286;-59
2021/10/21 05:33:05;;;;;;;33.23;21.60;;;;;;;10.15;96.10;100690.27;1808346;79;21293;-61
2021/10/21 05:36:14;;;;;;;37.75;21.17;;;;;;;10.22;95.99;100696.80;1769062;81;21670;-60
2021/10/21 05:39:22;;;;;;;34.80;21.77;;;;;;;10.30;95.90;100703.66;1793393;79;21192;-60
2021/10/21 05:42:27;;;;;;;26.52;20.90;;;;;;;10.39;95.75;100707.27;1808799;78;21209;-60
2021/10/21 05:45:34;;;;;;;26.42;20.30;;;;;;;10.49;95.52;100702.52;1808531;79;21248;-60
2021/10/21 05:48:42;;;;;;;31.75;21.50;;;;;;;10.58;95.27;100703.73;1808434;79;21718;-60
2021/10/21 05:51:47;;;;;;;31.85;21.02;;;;;;;10.66;95.00;100700.64;1808151;77;21700;-61
2021/10/21 05:54:53;;;;;;;29.45;20.12;;;;;;;10.75;94.73;100703.77;1791692;79;21888;-61
2021/10/21 05:57:59;;;;;;;26.73;20.48;;;;;;;10.82;94.43;100695.19;1808574;79;21315;-60
2021/10/21 06:01:06;;;;;;;27.95;17.82;;;;;;;10.88;94.14;100687.16;1809017;79;21393;-60
2021/10/21 06:04:12;;;;;;;23.98;16.80;;;;;;;10.95;93.81;100694.19;1812030;76;21825;-60
2021/10/21 06:07:20;;;;;;;22.93;15.98;;;;;;;11.03;93.47;100695.55;1817313;78;21228;-61
2021/10/21 06:10:27;;;;;;;22.32;15.45;;;;;;;11.10;93.05;100689.75;1805690;78;21181;-59
2021/10/21 06:13:33;;;;;;;28.20;17.25;;;;;;;11.18;92.52;100680.16;1797284;79;21773;-60
2021/10/21 06:16:42;;;;;;;24.52;16.60;;;;;;;11.24;92.03;100673.98;1796799;79;21690;-60
2021/10/21 06:19:47;;;;;;;22.87;16.55;;;;;;;11.32;91.55;100676.17;1786924;79;21353;-60
2021/10/21 06:22:55;;;;;;;25.95;15.23;;;;;;;11.40;90.90;100662.99;1802878;79;21899;-60
2021/10/21 06:26:00;;;;;;;27.42;18.45;;;;;;;11.49;90.35;100671.53;1764293;81;21201;-61
2021/10/21 06:29:08;;;;;;;21.65;15.08;;;;;;;11.57;89.74;100663.29;1813652;78;21189;-59
2021/10/21 06:32:32;;;;;;;23.85;14.38;;;;;;;11.65;88.93;100659.19;1797561;79;21217;-59
2021/10/21 06:35:37;;;;;;;21.17;14.35;;;;;;;11.74;88.13;100663.10;1798815;79;21923;-61
2021/10/21 06:38:43;;;;;;;19.32;13.03;;;;;;;11.79;87.38;100670.80;1800301;79;21241;-59
2021/10/21 06:41:50;;;;;;;23.38;13.85;;;;;;;11.87;86.67;100672.14;1819565;78;21189;-59
2021/10/21 06:45:00;;;;;;;21.57;13.28;;;;;;;11.95;86.10;100665.25;1804404;78;21212;-59
2021/10/21 06:48:09;;;;;;;19.40;12.75;;;;;;;12.05;85.46;100671.36;1796509;79;21342;-60
2021/10/21 06:51:15;;;;;;;22.85;13.40;;;;;;;12.14;84.71;100678.55;1769311;79;21205;-58
2021/10/21 06:54:24;;;;;;;18.80;12.65;;;;;;;12.25;84.10;100668.54;1769484;79;21332;-59
2021/10/21 06:57:31;;;;;;;17.35;11.85;;;;;;;12.37;83.49;100665.72;1756602;81;21173;-60
2021/10/21 07:00:41;;;;;;;21.42;12.80;;;;;;;12.49;82.85;100669.78;1771854;81;21860;-59
2021/10/21 07:03:49;;;;;;;14.85;10.78;;;;;;;12.62;82.23;100667.80;1783076;79;21204;-58
2021/10/21 07:06:57;;;;;;;25.30;14.38;;;;;;;12.76;81.57;100669.25;1823971;78;21288;-60
2021/10/21 07:10:06;;;;;;;21.90;11.30;;;;;;;12.89;81.02;100676.34;1770681;81;21387;-60
2021/10/21 07:13:14;;;;;;;16.50;10.43;;;;;;;13.03;80.12;100662.37;1813780;78;21776;-60
2021/10/21 07:16:21;;;;;;;21.90;12.15;;;;;;;13.16;79.19;100674.97;1817065;78;21382;-61
2021/10/21 07:19:28;;;;;;;21.05;10.93;;;;;;;13.29;78.19;100666.41;1825581;78;21228;-60
2021/10/21 07:22:35;;;;;;;15.28;10.60;;;;;;;13.42;77.37;100659.76;1823422;78;21366;-60
2021/10/21 07:25:43;;;;;;;19.85;11.30;;;;;;;13.54;76.62;100681.63;1822007;78;21332;-61
2021/10/21 07:28:50;;;;;;;14.35;9.15;;;;;;;13.65;75.47;100657.45;1821869;78;21285;-61
2021/10/21 07:31:56;;;;;;;14.63;10.05;;;;;;;13.71;74.56;100668.56;1815056;78;21244;-59
2021/10/21 07:35:04;;;;;;;17.80;11.03;;;;;;;13.75;73.36;100654.74;1818231;78;21343;-61
2021/10/21 07:38:15;;;;;;;20.53;9.70;;;;;;;13.84;73.23;100643.13;1743588;81;21844;-59
2021/10/21 07:41:25;;;;;;;15.38;9.05;;;;;;;13.92;72.66;100640.28;1838647;78;21223;-61
2021/10/21 07:44:31;;;;;;;16.95;9.25;;;;;;;13.98;71.90;100645.88;1828901;78;21173;-60
2021/10/21 07:47:49;;;;;;;12.85;8.98;;;;;;;14.05;71.09;100652.31;1839729;78;21331;-59
2021/10/21 07:51:04;;;;;;;16.25;8.60;;;;;;;14.11;70.49;100647.95;1706845;81;21310;-60
2021/10/21 07:54:21;;;;;;;12.63;8.38;;;;;;;14.18;70.00;100644.73;1823239;77;21246;-60
2021/10/21 07:57:29;;;;;;;14.55;8.10;;;;;;;14.27;69.24;100645.02;1816200;78;21748;-60
2021/10/21 08:00:49;;;;;;;15.88;9.25;;;;;;;14.33;68.78;100640.97;1822592;78;21331;-59
2021/10/21 08:04:02;;;;;;;11.10;7.78;;;;;;;14.42;68.38;100639.80;1828836;78;21774;-59
2021/10/21 08:07:12;;;;;;;17.95;9.58;;;;;;;14.48;67.57;100638.14;1802866;79;21578;-58
2021/10/21 08:10:20;;;;;;;11.33;7.62;;;;;;;14.57;66.84;100635.62;1803522;78;21960;-58
2021/10/21 08:13:34;;;;;;;12.15;7.25;;;;;;;14.66;66.11;100619.28;1712092;82;21258;-59
2021/10/21 08:16:55;;;;;;;12.15;7.33;;;;;;;14.75;65.55;100624.47;1707414;82;21212;-60
2021/10/21 08:20:00;;;;;;;15.98;7.40;;;;;;;14.86;64.62;100610.67;1797945;78;21189;-59
2021/10/21 08:23:05;;;;;;;12.90;7.28;;;;;;;14.96;64.30;100597.41;1800348;78;21173;-59
2021/10/21 08:26:12;;;;;;;9.90;6.78;;;;;;;15.06;63.45;100597.94;1799209;78;21372;-59
2021/10/21 08:29:30;;;;;;;12.80;6.95;;;;;;;15.14;63.23;100600.55;1798671;78;21939;-61
2021/10/21 08:32:40;;;;;;;11.03;7.08;;;;;;;15.27;63.02;100599.80;1792773;78;21848;-61
2021/10/21 08:35:46;;;;;;;14.53;7.45;;;;;;;15.39;62.39;100589.93;1796792;79;21225;-61
2021/10/21 08:38:53;;;;;;;12.78;7.78;;;;;;;15.46;61.16;100591.67;1797520;78;21312;-60
2021/10/21 08:42:00;;;;;;;12.18;7.60;;;;;;;15.52;60.75;100600.55;1802733;78;21200;-61
2021/10/21 08:45:05;;;;;;;10.58;7.17;;;;;;;15.58;60.69;100590.07;1798128;78;21319;-60
2021/10/21 08:48:12;;;;;;;12.47;7.20;;;;;;;15.66;60.23;100587.15;1791219;79;21830;-61
2021/10/21 08:51:22;;;;;;;13.83;7.50;;;;;;;15.74;59.77;100581.98;1794576;79;21378;-61
2021/10/21 08:54:31;;;;;;;12.23;8.00;;;;;;;15.83;59.33;100577.47;1801887;79;21209;-61
2021/10/21 08:57:40;;;;;;;14.80;7.40;;;;;;;15.93;59.26;100570.19;1792377;79;21206;-61
2021/10/21 09:00:55;;;;;;;9.08;7.47;;;;;;;16.04;58.71;100580.12;1796226;79;21161;-61
2021/10/21 09:04:02;;;;;;;11.90;7.15;;;;;;;16.12;58.52;100566.13;1709820;82;21210;-61
2021/10/21 09:10:40;;;;;;;16.75;7.40;;;;;;;16.27;57.55;100559.89;1797753;78;21257;-60
2021/10/21 09:13:47;;;;;;;13.03;7.78;;;;;;;16.36;57.50;100573.00;1781037;79;21791;-63
2021/10/21 09:17:10;;;;;;;12.20;7.15;;;;;;;16.42;57.55;100564.73;1798827;80;21194;-60
2021/10/21 09:20:39;;;;;;;8.40;6.05;;;;;;;16.52;57.31;100558.83;1798082;79;21253;-62
2021/10/21 09:23:45;;;;;;;13.10;6.65;;;;;;;16.59;56.67;100558.81;1798750;80;21827;-62
2021/10/21 09:27:29;;;;;;;9.85;6.42;;;;;;;16.62;56.66;100556.48;1775336;80;21584;-62
2021/10/21 09:30:40;;;;;;;9.85;6.12;;;;;;;16.71;56.83;100554.38;1798420;80;21340;-61
2021/10/21 09:34:00;;;;;;;12.20;6.25;;;;;;;16.82;55.60;100542.69;1798676;80;21273;-61
2021/10/21 09:37:13;;;;;;;15.32;7.33;;;;;;;16.91;55.45;100545.55;1799328;79;21372;-61
2021/10/21 09:40:27;;;;;;;13.50;8.23;;;;;;;17.00;54.82;100536.83;1798439;80;21214;-62
2021/10/21 09:43:41;;;;;;;14.53;6.55;;;;;;;17.08;54.64;100538.52;1729485;83;21331;-60
2021/10/21 09:46:50;;;;;;;12.15;6.72;;;;;;;17.20;54.93;100532.16;1799866;79;21238;-61
2021/10/21 09:49:58;;;;;;;8.43;5.75;;;;;;;17.35;54.48;100523.59;1799132;79;21364;-62
2021/10/21 09:53:31;;;;;;;11.18;5.83;;;;;;;17.44;53.40;100530.61;1798568;80;21202;-61
2021/10/21 09:56:37;;;;;;;17.80;6.43;;;;;;;17.51;53.59;100519.00;1798655;79;21218;-61
2021/10/21 09:59:45;;;;;;;9.83;5.22;;;;;;;17.58;53.42;100507.39;1798289;80;21445;-62
2021/10/21 10:02:57;;;;;;;9.65;5.50;;;;;;;17.62;52.86;100524.73;1718068;81;21640;-61
2021/10/21 10:06:04;;;;;;;12.98;6.12;;;;;;;17.64;53.08;100514.30;1772680;80;21335;-62
2021/10/21 12:25:13;;;;;;;13.08;4.00;;;;;;;17.96;53.65;100368.41;1767066;79;28240;-59
2021/10/21 12:28:19;;;;;;;8.95;3.98;;;;;;;17.91;53.58;100373.77;1722804;82;21490;-58
2021/10/21 12:31:27;;;;;;;9.70;3.55;;;;;;;17.87;53.67;100360.03;1712030;83;21246;-56
2021/10/21 12:34:34;;;;;;;10.25;3.40;;;;;;;17.83;53.68;100362.43;1742166;82;21206;-57
2021/10/21 12:37:53;;;;;;;8.55;4.10;;;;;;;17.79;53.65;100340.95;1745411;81;21197;-57
2021/10/21 12:41:04;;;;;;;12.93;3.60;;;;;;;17.76;53.62;100348.28;1745712;81;21178;-58
2021/10/21 12:44:12;;;;;;;;;;;;;;;17.75;53.21;100347.46;1730313;82;21201;-57
2021/10/21 12:47:21;;;;;;;10.32;3.98;;;;;;;17.78;53.15;100342.00;1729778;82;20192;-57
2021/10/21 12:50:32;;;;;;;9.23;3.70;;;;;;;17.78;52.93;100334.55;1744567;81;21820;-56
2021/10/21 12:53:38;;;;;;;9.78;3.77;;;;;;;17.77;53.08;100332.83;1745751;81;21209;-56
2021/10/21 12:56:50;;;;;;;10.10;3.85;;;;;;;17.76;53.40;100327.52;1745609;82;21729;-58
2021/10/21 12:59:55;;;;;;;12.33;6.37;;;;;;;17.74;53.56;100326.91;1723319;82;21788;-57
2021/10/21 13:03:21;;;;;;;14.50;3.98;;;;;;;17.71;53.64;100317.12;1733922;82;21211;-56
2021/10/21 13:06:27;;;;;;;9.03;4.33;;;;;;;17.66;53.68;100308.63;1695736;83;21592;-56
2021/10/21 13:09:32;;;;;;;11.35;3.72;;;;;;;17.66;53.86;100303.09;1746114;81;21221;-56
2021/10/21 13:12:39;;;;;;;8.78;4.08;;;;;;;17.67;53.70;100308.10;1746249;81;21186;-56
2021/10/21 13:15:46;;;;;;;8.70;3.58;;;;;;;17.64;53.54;100309.94;1746192;81;21245;-54
2021/10/21 13:18:59;;;;;;;8.30;3.52;;;;;;;17.62;53.51;100295.45;1745623;81;21785;-58
2021/10/21 13:22:01;;;;;;;10.20;3.45;;;;;;;17.61;53.53;100295.16;1732357;82;21793;-57
2021/10/21 13:25:08;;;;;;;7.70;3.80;;;;;;;17.60;53.38;100297.06;1701572;80;21176;-56
2021/10/21 13:28:14;;;;;;;14.13;6.08;;;;;;;17.59;53.33;100297.30;1694445;84;21283;-56
2021/10/21 13:31:20;;;;;;;16.25;7.53;;;;;;;17.56;53.27;100289.44;1695243;84;21271;-57
2021/10/21 13:34:26;;;;;;;11.83;6.08;;;;;;;17.54;53.31;100288.28;1702828;84;21227;-61
2021/10/21 13:37:33;;;;;;;12.78;5.67;;;;;;;17.51;53.36;100278.18;1704911;83;21731;-61
2021/10/21 13:40:41;;;;;;;16.67;6.28;;;;;;;17.45;53.50;100274.92;1706526;83;21273;-61
2021/10/21 13:43:48;;;;;;;10.75;4.80;;;;;;;17.38;53.79;100269.40;1705249;83;21723;-61
2021/10/21 13:46:53;;;;;;;7.83;4.97;;;;;;;17.32;54.23;100271.67;1705945;83;21294;-61
2021/10/21 13:49:59;;;;;;;10.55;5.10;;;;;;;17.22;54.52;100271.30;1689967;83;21211;-62
2021/10/21 13:53:05;;;;;;;9.20;4.72;;;;;;;17.11;54.82;100262.32;1674228;85;21600;-61
2021/10/21 13:56:12;;;;;;;11.48;4.97;;;;;;;17.03;55.17;100261.74;1703067;83;21241;-60
2021/10/21 13:59:18;;;;;;;7.60;4.40;;;;;;;16.92;55.39;100248.05;1695706;84;21273;-55
2021/10/21 14:02:23;;;;;;;11.80;5.97;;;;;;;16.83;55.62;100242.99;1691666;83;21201;-56
2021/10/21 14:05:30;;;;;;;7.70;5.47;;;;;;;16.73;55.95;100244.84;1699407;84;21212;-60
2021/10/21 14:08:37;;;;;;;12.13;7.25;;;;;;;16.65;56.14;100251.17;1690669;83;21196;-56
2021/10/21 14:11:43;;;;;;;15.60;8.70;;;;;;;16.57;56.25;100250.02;1701917;83;21518;-59
2021/10/21 14:14:48;;;;;;;17.15;8.78;;;;;;;16.48;56.50;100237.48;1701527;83;21196;-56
2021/10/21 14:17:54;;;;;;;11.78;7.15;;;;;;;16.39;56.79;100243.22;1701503;83;21196;-57
2021/10/21 14:20:59;;;;;;;14.93;8.43;;;;;;;16.30;57.02;100237.62;1701183;83;21252;-57
2021/10/21 14:24:04;;;;;;;16.12;8.38;;;;;;;16.21;57.35;100232.02;1705029;82;21230;-56
2021/10/21 14:27:11;;;;;;;10.50;6.05;;;;;;;16.10;57.62;100223.02;1702502;80;21215;-58
2021/10/21 14:30:21;;;;;;;14.95;7.33;;;;;;;16.01;57.90;100221.55;1691939;84;21254;-58
2021/10/21 14:33:29;;;;;;;13.03;7.40;;;;;;;15.92;58.14;100221.98;1674927;83;21214;-60
2021/10/21 14:36:34;;;;;;;17.77;7.78;;;;;;;15.83;58.35;100217.20;1666614;82;21226;-60
2021/10/21 14:39:40;;;;;;;12.90;7.10;;;;;;;15.73;58.63;100208.50;1704484;82;21316;-61
2021/10/21 14:42:47;;;;;;;12.10;6.20;;;;;;;15.62;58.90;100208.31;1737002;82;21720;-61
2021/10/21 14:45:54;;;;;;;12.63;6.62;;;;;;;15.52;59.08;100208.73;1773570;80;21571;-60
2021/10/21 14:49:00;;;;;;;18.80;6.78;;;;;;;15.41;59.32;100205.23;1774751;80;21199;-60
2021/10/21 14:52:05;;;;;;;12.98;6.78;;;;;;;15.33;59.30;100205.40;1747038;80;21649;-61
2021/10/21 14:55:11;;;;;;;12.37;6.17;;;;;;;15.26;59.23;100205.05;1721182;82;21227;-61
2021/10/21 14:58:18;;;;;;;13.38;6.40;;;;;;;15.18;59.25;100197.83;1727251;82;21218;-58
2021/10/21 15:01:27;;;;;;;16.00;7.28;;;;;;;15.10;59.22;100195.27;1737052;82;21191;-59
2021/10/21 15:04:37;;;;;;;14.20;7.80;;;;;;;15.03;59.21;100194.95;1735954;82;21864;-57
2021/10/21 15:07:54;;;;;;;13.38;7.42;;;;;;;14.94;59.09;100189.63;1729877;82;21912;-57
2021/10/21 15:11:29;;;;;;;11.70;6.15;;;;;;;14.87;59.05;100181.86;1703226;83;21169;-58
2021/10/21 15:24:29;;;;;;;11.03;6.72;;;;;;;14.61;59.25;100166.64;1737310;82;21246;-56
2021/10/21 15:27:36;;;;;;;12.43;7.55;;;;;;;14.52;59.62;100171.17;1728448;78;21211;-56
2021/10/21 15:30:42;;;;;;;20.57;9.03;;;;;;;14.44;60.01;100165.84;1723375;82;21762;-55
2021/10/21 15:33:49;;;;;;;22.50;11.08;;;;;;;14.38;60.28;100163.91;1721920;82;21206;-58
2021/10/21 15:36:56;;;;;;;20.00;9.98;;;;;;;14.32;60.38;100163.33;1723042;82;21479;-57
2021/10/21 15:40:02;;;;;;;18.87;9.58;;;;;;;14.28;60.56;100168.42;1722936;82;21707;-58
2021/10/21 15:43:10;;;;;;;24.85;12.00;;;;;;;14.26;60.62;100166.91;1720196;82;21214;-56
2021/10/21 15:46:17;;;;;;;18.90;8.90;;;;;;;14.21;60.79;100165.27;1725939;82;21167;-57
2021/10/21 16:09:59;;;;;;;12.15;7.95;;;;;;;13.86;61.97;100175.99;1633008;85;21335;-58
2021/10/21 16:12:58;;;;;;;12.07;7.53;;;;;;;13.81;62.15;100170.23;1724824;82;21767;-57
2021/10/21 16:16:06;;;;;;;11.70;6.28;;;;;;;13.77;62.24;100182.17;1725590;82;21218;-54
2021/10/21 16:19:13;;;;;;;11.38;7.20;;;;;;;13.75;62.27;100176.01;1689873;84;21211;-55
2021/10/21 16:28:38;;;;;;;11.25;6.10;;;;;;;13.73;61.79;100188.27;1697678;80;21213;-56
2021/10/21 16:31:46;;;;;;;17.77;7.50;;;;;;;13.70;61.68;100181.80;1730266;82;21790;-57
2021/10/21 16:34:52;;;;;;;14.38;7.17;;;;;;;13.67;61.58;100191.29;1732954;82;21238;-57
2021/10/21 16:37:58;;;;;;;11.10;6.67;;;;;;;13.66;61.48;100199.74;1733729;82;21790;-55
2021/10/21 16:41:04;;;;;;;12.50;6.17;;;;;;;13.63;61.41;100198.77;1732522;82;21194;-56
2021/10/21 16:44:09;;;;;;;14.15;7.25;;;;;;;13.60;61.37;100193.16;1742966;82;21356;-57
2021/10/21 16:47:14;;;;;;;38.02;22.60;;;;;;;13.58;61.29;100195.77;1709510;82;21193;-57
2021/10/21 16:50:20;;;;;;;54.03;29.32;;;;;;;13.56;61.29;100188.27;1716838;83;21743;-55
2021/10/21 16:53:26;;;;;;;57.17;26.82;;;;;;;13.51;61.34;100189.69;1716796;83;21221;-57
2021/10/21 16:56:31;;;;;;;60.17;26.62;;;;;;;13.46;61.40;100197.69;1717704;83;21356;-54
2021/10/21 16:59:37;;;;;;;49.08;23.05;;;;;;;13.42;61.56;100190.89;1717820;83;21230;-56
2021/10/21 17:02:42;;;;;;;71.50;31.33;;;;;;;13.38;61.69;100186.83;1718102;83;21170;-56
2021/10/21 17:05:51;;;;;;;47.78;21.05;;;;;;;13.32;61.85;100189.52;1704130;83;21952;-56
2021/10/21 17:08:56;;;;;;;49.30;21.20;;;;;;;13.25;62.16;100181.23;1743619;80;21214;-55
2021/10/21 17:12:02;;;;;;;86.63;37.42;;;;;;;13.19;62.32;100190.25;1747608;81;21308;-57
2021/10/21 17:15:06;;;;;;;56.68;26.27;;;;;;;13.18;62.47;100186.33;1747146;81;21343;-56
2021/10/21 17:18:11;;;;;;;45.20;20.85;;;;;;;13.15;62.65;100175.21;1746630;81;21901;-57